sensor_id;sensor_type;location;lat;lon;timestamp;P1;durP1;ratioP1;P2;durP2;ratioP2
14900;SDS011;7542;49.078;9.194;2023-05-29T00:00:04;3.00;;;2.75;;
14900;SDS011;7542;49.078;9.194;2023-05-29T00:01:10;3.67;;;3.22;;
14900;SDS011;7542;49.078;9.194;2023-05-29T00:02:12;3.20;;;2.90;;
14900;SDS011;7542;49.078;9.194;2023-05-29T00:03:14;3.40;;;3.10;;
14900;SDS011;7542;49.078;9.194;2023-05-29T00:04:16;3.35;;;3.05;;
14900;SDS011;7542;49.078;9.194;2023-05-29T00:05:18;6.85;;;3.03;;
14900;SDS011;7542;49.078;9.194;2023-05-29T00:06:20;3.25;;;3.05;;
14900;SDS011;7542;49.078;9.194;2023-05-29T00:07:22;3.00;;;2.50;;
14900;SDS011;7542;49.078;9.194;2023-05-29T00:08:24;2.95;;;2.78;;
14900;SDS011;7542;49.078;9.194;2023-05-29T00:09:26;3.08;;;2.80;;
14900;SDS011;7542;49.078;9.194;2023-05-29T00:10:29;3.25;;;2.97;;
14900;SDS011;7542;49.078;9.194;2023-05-29T00:11:32;3.00;;;2.80;;
14900;SDS011;7542;49.078;9.194;2023-05-29T00:12:35;3.08;;;2.75;;
14900;SDS011;7542;49.078;9.194;2023-05-29T00:13:38;3.05;;;2.72;;
14900;SDS011;7542;49.078;9.194;2023-05-29T00:14:41;2.75;;;2.55;;
14900;SDS011;7542;49.078;9.194;2023-05-29T00:15:43;4.32;;;3.10;;
14900;SDS011;7542;49.078;9.194;2023-05-29T00:16:48;3.42;;;3.00;;
14900;SDS011;7542;49.078;9.194;2023-05-29T00:17:51;3.35;;;3.05;;
14900;SDS011;7542;49.078;9.194;2023-05-29T00:18:54;4.20;;;2.78;;
14900;SDS011;7542;49.078;9.194;2023-05-29T00:19:56;3.47;;;2.88;;
14900;SDS011;7542;49.078;9.194;2023-05-29T00:21:02;3.20;;;2.90;;
14900;SDS011;7542;49.078;9.194;2023-05-29T00:22:05;3.78;;;3.00;;
14900;SDS011;7542;49.078;9.194;2023-05-29T00:23:08;3.58;;;3.28;;
14900;SDS011;7542;49.078;9.194;2023-05-29T00:24:11;3.80;;;3.28;;
14900;SDS011;7542;49.078;9.194;2023-05-29T00:25:14;3.97;;;3.33;;
14900;SDS011;7542;49.078;9.194;2023-05-29T00:26:16;3.60;;;3.30;;
14900;SDS011;7542;49.078;9.194;2023-05-29T00:27:19;3.30;;;3.10;;
14900;SDS011;7542;49.078;9.194;2023-05-29T00:28:21;3.90;;;2.80;;
14900;SDS011;7542;49.078;9.194;2023-05-29T00:29:23;4.18;;;2.88;;
14900;SDS011;7542;49.078;9.194;2023-05-29T00:30:26;3.13;;;2.92;;
14900;SDS011;7542;49.078;9.194;2023-05-29T00:31:28;3.38;;;3.08;;
14900;SDS011;7542;49.078;9.194;2023-05-29T00:32:31;3.67;;;3.30;;
14900;SDS011;7542;49.078;9.194;2023-05-29T00:33:34;4.22;;;3.25;;
14900;SDS011;7542;49.078;9.194;2023-05-29T00:34:36;3.42;;;3.03;;
14900;SDS011;7542;49.078;9.194;2023-05-29T00:35:38;7.10;;;3.17;;
14900;SDS011;7542;49.078;9.194;2023-05-29T00:36:41;4.28;;;3.50;;
14900;SDS011;7542;49.078;9.194;2023-05-29T00:37:43;4.28;;;2.80;;
14900;SDS011;7542;49.078;9.194;2023-05-29T00:38:46;2.97;;;2.50;;
14900;SDS011;7542;49.078;9.194;2023-05-29T00:39:48;3.90;;;2.90;;
14900;SDS011;7542;49.078;9.194;2023-05-29T00:40:51;3.15;;;2.85;;
14900;SDS011;7542;49.078;9.194;2023-05-29T00:41:53;4.63;;;3.05;;
14900;SDS011;7542;49.078;9.194;2023-05-29T00:42:56;3.45;;;3.10;;
14900;SDS011;7542;49.078;9.194;2023-05-29T00:43:58;3.75;;;3.10;;
14900;SDS011;7542;49.078;9.194;2023-05-29T00:45:00;3.47;;;3.00;;
14900;SDS011;7542;49.078;9.194;2023-05-29T00:46:03;2.90;;;2.70;;
14900;SDS011;7542;49.078;9.194;2023-05-29T00:47:05;3.00;;;2.80;;
14900;SDS011;7542;49.078;9.194;2023-05-29T00:48:08;3.33;;;3.05;;
14900;SDS011;7542;49.078;9.194;2023-05-29T00:49:11;3.30;;;3.03;;
14900;SDS011;7542;49.078;9.194;2023-05-29T00:50:14;3.85;;;2.92;;
14900;SDS011;7542;49.078;9.194;2023-05-29T00:51:17;3.08;;;2.80;;
14900;SDS011;7542;49.078;9.194;2023-05-29T00:52:20;2.92;;;2.60;;
14900;SDS011;7542;49.078;9.194;2023-05-29T00:53:22;4.85;;;3.10;;
14900;SDS011;7542;49.078;9.194;2023-05-29T00:54:26;3.50;;;3.20;;
14900;SDS011;7542;49.078;9.194;2023-05-29T00:55:30;3.33;;;2.70;;
14900;SDS011;7542;49.078;9.194;2023-05-29T00:56:38;2.90;;;2.70;;
14900;SDS011;7542;49.078;9.194;2023-05-29T00:57:44;3.47;;;3.17;;
14900;SDS011;7542;49.078;9.194;2023-05-29T00:58:48;3.28;;;2.90;;
14900;SDS011;7542;49.078;9.194;2023-05-29T00:59:52;3.10;;;2.80;;
14900;SDS011;7542;49.078;9.194;2023-05-29T01:00:55;2.95;;;2.67;;
14900;SDS011;7542;49.078;9.194;2023-05-29T01:01:58;2.90;;;2.70;;
14900;SDS011;7542;49.078;9.194;2023-05-29T01:03:03;3.50;;;3.20;;
14900;SDS011;7542;49.078;9.194;2023-05-29T01:04:07;3.47;;;3.17;;
14900;SDS011;7542;49.078;9.194;2023-05-29T01:05:13;3.45;;;3.25;;
14900;SDS011;7542;49.078;9.194;2023-05-29T01:06:16;3.30;;;3.00;;
14900;SDS011;7542;49.078;9.194;2023-05-29T01:07:18;3.50;;;3.17;;
14900;SDS011;7542;49.078;9.194;2023-05-29T01:08:21;5.10;;;3.23;;
14900;SDS011;7542;49.078;9.194;2023-05-29T01:09:23;4.03;;;3.03;;
14900;SDS011;7542;49.078;9.194;2023-05-29T01:10:26;4.07;;;3.00;;
14900;SDS011;7542;49.078;9.194;2023-05-29T01:13:01;3.17;;;3.00;;
14900;SDS011;7542;49.078;9.194;2023-05-29T01:14:10;3.40;;;3.10;;
14900;SDS011;7542;49.078;9.194;2023-05-29T01:15:32;3.43;;;2.60;;
14900;SDS011;7542;49.078;9.194;2023-05-29T01:16:43;3.20;;;2.90;;
14900;SDS011;7542;49.078;9.194;2023-05-29T01:20:15;3.30;;;3.00;;
14900;SDS011;7542;49.078;9.194;2023-05-29T01:25:37;3.30;;;3.10;;
14900;SDS011;7542;49.078;9.194;2023-05-29T01:27:50;4.07;;;2.97;;
14900;SDS011;7542;49.078;9.194;2023-05-29T01:28:55;3.10;;;2.90;;
14900;SDS011;7542;49.078;9.194;2023-05-29T01:30:02;3.33;;;3.13;;
14900;SDS011;7542;49.078;9.194;2023-05-29T01:31:05;4.03;;;3.10;;
14900;SDS011;7542;49.078;9.194;2023-05-29T01:32:10;3.33;;;3.07;;
14900;SDS011;7542;49.078;9.194;2023-05-29T01:33:13;3.20;;;2.90;;
14900;SDS011;7542;49.078;9.194;2023-05-29T01:34:15;3.40;;;3.10;;
14900;SDS011;7542;49.078;9.194;2023-05-29T01:35:18;3.00;;;2.80;;
14900;SDS011;7542;49.078;9.194;2023-05-29T01:36:21;2.90;;;2.70;;
14900;SDS011;7542;49.078;9.194;2023-05-29T01:37:23;3.40;;;3.10;;
14900;SDS011;7542;49.078;9.194;2023-05-29T01:38:26;2.90;;;2.70;;
14900;SDS011;7542;49.078;9.194;2023-05-29T01:39:29;3.67;;;3.30;;
14900;SDS011;7542;49.078;9.194;2023-05-29T01:40:33;3.40;;;3.00;;
14900;SDS011;7542;49.078;9.194;2023-05-29T01:41:36;2.83;;;2.63;;
14900;SDS011;7542;49.078;9.194;2023-05-29T01:42:39;2.90;;;2.67;;
14900;SDS011;7542;49.078;9.194;2023-05-29T01:43:43;3.27;;;2.97;;
14900;SDS011;7542;49.078;9.194;2023-05-29T01:44:46;3.33;;;3.10;;
14900;SDS011;7542;49.078;9.194;2023-05-29T01:45:49;3.20;;;2.93;;
14900;SDS011;7542;49.078;9.194;2023-05-29T01:46:52;4.13;;;2.93;;
14900;SDS011;7542;49.078;9.194;2023-05-29T01:47:55;3.42;;;3.13;;
14900;SDS011;7542;49.078;9.194;2023-05-29T01:48:58;3.33;;;3.03;;
14900;SDS011;7542;49.078;9.194;2023-05-29T01:50:00;2.97;;;2.77;;
14900;SDS011;7542;49.078;9.194;2023-05-29T01:51:05;3.00;;;2.70;;
14900;SDS011;7542;49.078;9.194;2023-05-29T01:52:08;3.25;;;2.97;;
14900;SDS011;7542;49.078;9.194;2023-05-29T01:53:11;2.93;;;2.70;;
14900;SDS011;7542;49.078;9.194;2023-05-29T01:54:14;3.83;;;2.90;;
14900;SDS011;7542;49.078;9.194;2023-05-29T01:55:16;3.28;;;2.88;;
14900;SDS011;7542;49.078;9.194;2023-05-29T01:56:19;3.35;;;3.05;;
14900;SDS011;7542;49.078;9.194;2023-05-29T01:57:25;3.23;;;2.90;;
14900;SDS011;7542;49.078;9.194;2023-05-29T01:58:27;3.43;;;2.77;;
14900;SDS011;7542;49.078;9.194;2023-05-29T01:59:32;3.20;;;2.90;;
14900;SDS011;7542;49.078;9.194;2023-05-29T02:00:36;2.30;;;2.20;;
14900;SDS011;7542;49.078;9.194;2023-05-29T02:01:39;2.83;;;2.63;;
14900;SDS011;7542;49.078;9.194;2023-05-29T02:02:42;4.63;;;2.90;;
14900;SDS011;7542;49.078;9.194;2023-05-29T02:03:44;3.67;;;3.10;;
14900;SDS011;7542;49.078;9.194;2023-05-29T02:04:47;4.57;;;3.20;;
14900;SDS011;7542;49.078;9.194;2023-05-29T02:05:49;4.70;;;2.90;;
14900;SDS011;7542;49.078;9.194;2023-05-29T02:06:52;3.40;;;3.17;;
14900;SDS011;7542;49.078;9.194;2023-05-29T02:07:54;3.10;;;2.80;;
14900;SDS011;7542;49.078;9.194;2023-05-29T02:08:56;3.77;;;3.13;;
14900;SDS011;7542;49.078;9.194;2023-05-29T02:09:58;3.13;;;2.90;;
14900;SDS011;7542;49.078;9.194;2023-05-29T02:11:01;4.57;;;2.93;;
14900;SDS011;7542;49.078;9.194;2023-05-29T02:12:03;3.30;;;3.00;;
14900;SDS011;7542;49.078;9.194;2023-05-29T02:13:07;4.93;;;3.20;;
14900;SDS011;7542;49.078;9.194;2023-05-29T02:14:09;3.08;;;2.85;;
14900;SDS011;7542;49.078;9.194;2023-05-29T02:15:11;4.00;;;3.30;;
14900;SDS011;7542;49.078;9.194;2023-05-29T02:16:13;3.38;;;3.08;;
14900;SDS011;7542;49.078;9.194;2023-05-29T02:17:16;3.30;;;3.00;;
14900;SDS011;7542;49.078;9.194;2023-05-29T02:18:20;2.87;;;2.67;;
14900;SDS011;7542;49.078;9.194;2023-05-29T02:19:22;3.30;;;3.10;;
14900;SDS011;7542;49.078;9.194;2023-05-29T02:20:26;3.60;;;3.07;;
14900;SDS011;7542;49.078;9.194;2023-05-29T02:21:29;3.47;;;2.97;;
14900;SDS011;7542;49.078;9.194;2023-05-29T02:22:32;3.23;;;2.93;;
14900;SDS011;7542;49.078;9.194;2023-05-29T02:23:35;4.47;;;3.07;;
14900;SDS011;7542;49.078;9.194;2023-05-29T02:24:37;3.92;;;3.05;;
14900;SDS011;7542;49.078;9.194;2023-05-29T02:25:39;4.85;;;2.47;;
14900;SDS011;7542;49.078;9.194;2023-05-29T02:26:42;3.20;;;2.78;;
14900;SDS011;7542;49.078;9.194;2023-05-29T02:27:44;3.23;;;2.70;;
14900;SDS011;7542;49.078;9.194;2023-05-29T02:28:46;3.23;;;2.80;;
14900;SDS011;7542;49.078;9.194;2023-05-29T02:29:49;3.00;;;2.80;;
14900;SDS011;7542;49.078;9.194;2023-05-29T02:30:51;3.47;;;3.17;;
14900;SDS011;7542;49.078;9.194;2023-05-29T02:31:54;3.83;;;2.80;;
14900;SDS011;7542;49.078;9.194;2023-05-29T02:32:56;3.10;;;2.77;;
14900;SDS011;7542;49.078;9.194;2023-05-29T02:33:59;3.30;;;3.00;;
14900;SDS011;7542;49.078;9.194;2023-05-29T02:35:02;2.90;;;2.60;;
14900;SDS011;7542;49.078;9.194;2023-05-29T02:36:04;3.07;;;2.87;;
14900;SDS011;7542;49.078;9.194;2023-05-29T02:37:11;3.83;;;3.10;;
14900;SDS011;7542;49.078;9.194;2023-05-29T02:38:13;3.07;;;2.80;;
14900;SDS011;7542;49.078;9.194;2023-05-29T02:39:16;4.13;;;3.17;;
14900;SDS011;7542;49.078;9.194;2023-05-29T02:40:19;3.20;;;3.00;;
14900;SDS011;7542;49.078;9.194;2023-05-29T02:41:21;3.13;;;2.70;;
14900;SDS011;7542;49.078;9.194;2023-05-29T02:42:24;3.73;;;2.90;;
14900;SDS011;7542;49.078;9.194;2023-05-29T02:43:26;3.20;;;3.00;;
14900;SDS011;7542;49.078;9.194;2023-05-29T02:44:28;3.25;;;2.85;;
14900;SDS011;7542;49.078;9.194;2023-05-29T02:45:31;4.10;;;3.00;;
14900;SDS011;7542;49.078;9.194;2023-05-29T02:46:33;3.37;;;3.07;;
14900;SDS011;7542;49.078;9.194;2023-05-29T02:47:35;3.07;;;2.87;;
14900;SDS011;7542;49.078;9.194;2023-05-29T02:48:38;4.83;;;3.00;;
14900;SDS011;7542;49.078;9.194;2023-05-29T02:49:41;3.13;;;2.83;;
14900;SDS011;7542;49.078;9.194;2023-05-29T02:50:43;3.50;;;3.20;;
14900;SDS011;7542;49.078;9.194;2023-05-29T02:51:45;3.30;;;3.00;;
14900;SDS011;7542;49.078;9.194;2023-05-29T02:52:47;4.33;;;3.10;;
14900;SDS011;7542;49.078;9.194;2023-05-29T02:53:50;3.23;;;3.00;;
14900;SDS011;7542;49.078;9.194;2023-05-29T02:54:52;4.30;;;3.00;;
14900;SDS011;7542;49.078;9.194;2023-05-29T02:55:55;3.00;;;2.80;;
14900;SDS011;7542;49.078;9.194;2023-05-29T02:56:57;3.03;;;2.83;;
14900;SDS011;7542;49.078;9.194;2023-05-29T02:58:00;2.97;;;2.77;;
14900;SDS011;7542;49.078;9.194;2023-05-29T02:59:02;3.77;;;3.20;;
14900;SDS011;7542;49.078;9.194;2023-05-29T03:00:05;3.00;;;2.70;;
14900;SDS011;7542;49.078;9.194;2023-05-29T03:01:09;3.67;;;3.00;;
14900;SDS011;7542;49.078;9.194;2023-05-29T03:02:12;5.20;;;2.97;;
14900;SDS011;7542;49.078;9.194;2023-05-29T03:03:14;3.37;;;2.80;;
14900;SDS011;7542;49.078;9.194;2023-05-29T03:04:17;3.00;;;2.80;;
14900;SDS011;7542;49.078;9.194;2023-05-29T03:05:19;2.80;;;2.60;;
14900;SDS011;7542;49.078;9.194;2023-05-29T03:06:22;3.33;;;3.10;;
14900;SDS011;7542;49.078;9.194;2023-05-29T03:07:24;3.17;;;2.87;;
14900;SDS011;7542;49.078;9.194;2023-05-29T03:08:27;4.53;;;3.00;;
14900;SDS011;7542;49.078;9.194;2023-05-29T03:09:29;4.23;;;3.00;;
14900;SDS011;7542;49.078;9.194;2023-05-29T03:10:31;2.83;;;2.57;;
14900;SDS011;7542;49.078;9.194;2023-05-29T03:11:34;3.77;;;3.10;;
14900;SDS011;7542;49.078;9.194;2023-05-29T03:12:37;3.37;;;3.07;;
14900;SDS011;7542;49.078;9.194;2023-05-29T03:13:40;3.67;;;2.90;;
14900;SDS011;7542;49.078;9.194;2023-05-29T03:14:43;3.27;;;2.93;;
14900;SDS011;7542;49.078;9.194;2023-05-29T03:15:45;6.53;;;3.00;;
14900;SDS011;7542;49.078;9.194;2023-05-29T03:16:48;3.20;;;2.90;;
14900;SDS011;7542;49.078;9.194;2023-05-29T03:17:51;3.13;;;2.80;;
14900;SDS011;7542;49.078;9.194;2023-05-29T03:18:54;3.67;;;2.80;;
14900;SDS011;7542;49.078;9.194;2023-05-29T03:19:56;2.93;;;2.73;;
14900;SDS011;7542;49.078;9.194;2023-05-29T03:20:58;3.20;;;2.93;;
14900;SDS011;7542;49.078;9.194;2023-05-29T03:22:01;3.13;;;2.83;;
14900;SDS011;7542;49.078;9.194;2023-05-29T03:23:04;3.20;;;2.93;;
14900;SDS011;7542;49.078;9.194;2023-05-29T03:24:07;3.83;;;2.90;;
14900;SDS011;7542;49.078;9.194;2023-05-29T03:25:09;3.23;;;2.47;;
14900;SDS011;7542;49.078;9.194;2023-05-29T03:26:11;3.20;;;3.00;;
14900;SDS011;7542;49.078;9.194;2023-05-29T03:27:14;3.47;;;2.90;;
14900;SDS011;7542;49.078;9.194;2023-05-29T03:28:16;3.37;;;2.77;;
14900;SDS011;7542;49.078;9.194;2023-05-29T03:29:19;3.10;;;2.90;;
14900;SDS011;7542;49.078;9.194;2023-05-29T03:30:21;3.10;;;2.80;;
14900;SDS011;7542;49.078;9.194;2023-05-29T03:31:23;2.93;;;2.73;;
14900;SDS011;7542;49.078;9.194;2023-05-29T03:32:26;3.40;;;2.63;;
14900;SDS011;7542;49.078;9.194;2023-05-29T03:33:28;2.80;;;2.60;;
14900;SDS011;7542;49.078;9.194;2023-05-29T03:34:30;3.20;;;2.90;;
14900;SDS011;7542;49.078;9.194;2023-05-29T03:35:33;3.17;;;2.60;;
14900;SDS011;7542;49.078;9.194;2023-05-29T03:36:35;2.83;;;2.63;;
14900;SDS011;7542;49.078;9.194;2023-05-29T03:37:38;3.00;;;2.63;;
14900;SDS011;7542;49.078;9.194;2023-05-29T03:38:40;3.27;;;2.77;;
14900;SDS011;7542;49.078;9.194;2023-05-29T03:39:42;2.93;;;2.73;;
14900;SDS011;7542;49.078;9.194;2023-05-29T03:40:45;3.53;;;2.80;;
14900;SDS011;7542;49.078;9.194;2023-05-29T03:41:47;4.87;;;2.73;;
14900;SDS011;7542;49.078;9.194;2023-05-29T03:42:49;2.87;;;2.53;;
14900;SDS011;7542;49.078;9.194;2023-05-29T03:43:52;4.23;;;2.83;;
14900;SDS011;7542;49.078;9.194;2023-05-29T03:44:54;3.63;;;2.60;;
14900;SDS011;7542;49.078;9.194;2023-05-29T03:45:56;3.20;;;2.80;;
14900;SDS011;7542;49.078;9.194;2023-05-29T03:46:58;3.83;;;3.00;;
14900;SDS011;7542;49.078;9.194;2023-05-29T03:48:01;3.30;;;3.00;;
14900;SDS011;7542;49.078;9.194;2023-05-29T03:49:03;3.00;;;2.70;;
14900;SDS011;7542;49.078;9.194;2023-05-29T03:50:08;2.63;;;2.43;;
14900;SDS011;7542;49.078;9.194;2023-05-29T03:51:11;2.93;;;2.63;;
14900;SDS011;7542;49.078;9.194;2023-05-29T03:52:13;3.00;;;2.70;;
14900;SDS011;7542;49.078;9.194;2023-05-29T03:53:15;3.50;;;2.80;;
14900;SDS011;7542;49.078;9.194;2023-05-29T03:54:18;2.77;;;2.57;;
14900;SDS011;7542;49.078;9.194;2023-05-29T03:55:20;2.80;;;2.63;;
14900;SDS011;7542;49.078;9.194;2023-05-29T03:56:23;2.90;;;2.70;;
14900;SDS011;7542;49.078;9.194;2023-05-29T03:57:25;3.10;;;2.53;;
14900;SDS011;7542;49.078;9.194;2023-05-29T03:58:28;3.90;;;2.83;;
14900;SDS011;7542;49.078;9.194;2023-05-29T03:59:31;2.93;;;2.73;;
14900;SDS011;7542;49.078;9.194;2023-05-29T04:00:33;2.63;;;2.47;;
14900;SDS011;7542;49.078;9.194;2023-05-29T04:01:36;2.87;;;2.67;;
14900;SDS011;7542;49.078;9.194;2023-05-29T04:02:38;3.10;;;2.40;;
14900;SDS011;7542;49.078;9.194;2023-05-29T04:03:41;2.77;;;2.57;;
14900;SDS011;7542;49.078;9.194;2023-05-29T04:04:45;2.70;;;2.53;;
14900;SDS011;7542;49.078;9.194;2023-05-29T04:05:48;4.80;;;2.67;;
14900;SDS011;7542;49.078;9.194;2023-05-29T04:06:50;3.37;;;3.03;;
14900;SDS011;7542;49.078;9.194;2023-05-29T04:07:52;3.07;;;2.77;;
14900;SDS011;7542;49.078;9.194;2023-05-29T04:09:08;2.77;;;2.57;;
14900;SDS011;7542;49.078;9.194;2023-05-29T04:10:10;3.10;;;2.90;;
14900;SDS011;7542;49.078;9.194;2023-05-29T04:11:13;2.87;;;2.70;;
14900;SDS011;7542;49.078;9.194;2023-05-29T04:12:16;3.10;;;2.80;;
14900;SDS011;7542;49.078;9.194;2023-05-29T04:13:18;4.23;;;3.17;;
14900;SDS011;7542;49.078;9.194;2023-05-29T04:14:21;3.00;;;2.80;;
14900;SDS011;7542;49.078;9.194;2023-05-29T04:15:23;3.83;;;2.73;;
14900;SDS011;7542;49.078;9.194;2023-05-29T04:16:27;2.83;;;2.63;;
14900;SDS011;7542;49.078;9.194;2023-05-29T04:17:30;3.07;;;2.87;;
14900;SDS011;7542;49.078;9.194;2023-05-29T04:18:32;3.00;;;2.47;;
14900;SDS011;7542;49.078;9.194;2023-05-29T04:19:34;3.07;;;2.77;;
14900;SDS011;7542;49.078;9.194;2023-05-29T04:20:37;4.33;;;2.87;;
14900;SDS011;7542;49.078;9.194;2023-05-29T04:21:39;2.70;;;2.50;;
14900;SDS011;7542;49.078;9.194;2023-05-29T04:22:41;2.73;;;2.53;;
14900;SDS011;7542;49.078;9.194;2023-05-29T04:23:44;3.43;;;2.70;;
14900;SDS011;7542;49.078;9.194;2023-05-29T04:24:46;2.90;;;2.60;;
14900;SDS011;7542;49.078;9.194;2023-05-29T04:25:48;2.70;;;2.50;;
14900;SDS011;7542;49.078;9.194;2023-05-29T04:26:54;3.27;;;2.90;;
14900;SDS011;7542;49.078;9.194;2023-05-29T04:27:56;3.40;;;3.13;;
14900;SDS011;7542;49.078;9.194;2023-05-29T04:28:58;3.47;;;2.60;;
14900;SDS011;7542;49.078;9.194;2023-05-29T04:30:01;3.10;;;2.90;;
14900;SDS011;7542;49.078;9.194;2023-05-29T04:31:09;3.07;;;2.80;;
14900;SDS011;7542;49.078;9.194;2023-05-29T04:32:15;2.70;;;2.50;;
14900;SDS011;7542;49.078;9.194;2023-05-29T04:33:18;3.77;;;2.90;;
14900;SDS011;7542;49.078;9.194;2023-05-29T04:34:22;3.20;;;2.83;;
14900;SDS011;7542;49.078;9.194;2023-05-29T04:35:24;3.20;;;2.90;;
14900;SDS011;7542;49.078;9.194;2023-05-29T04:36:29;2.67;;;2.43;;
14900;SDS011;7542;49.078;9.194;2023-05-29T04:37:33;3.03;;;2.83;;
14900;SDS011;7542;49.078;9.194;2023-05-29T04:38:39;3.43;;;2.90;;
14900;SDS011;7542;49.078;9.194;2023-05-29T04:39:42;4.50;;;2.80;;
14900;SDS011;7542;49.078;9.194;2023-05-29T04:40:44;2.60;;;2.47;;
14900;SDS011;7542;49.078;9.194;2023-05-29T04:41:47;3.17;;;2.80;;
14900;SDS011;7542;49.078;9.194;2023-05-29T04:42:49;3.23;;;3.00;;
14900;SDS011;7542;49.078;9.194;2023-05-29T04:43:51;3.07;;;2.87;;
14900;SDS011;7542;49.078;9.194;2023-05-29T04:44:54;2.83;;;2.63;;
14900;SDS011;7542;49.078;9.194;2023-05-29T04:45:56;3.03;;;2.73;;
14900;SDS011;7542;49.078;9.194;2023-05-29T04:47:00;3.13;;;2.93;;
14900;SDS011;7542;49.078;9.194;2023-05-29T04:48:05;2.73;;;2.53;;
14900;SDS011;7542;49.078;9.194;2023-05-29T04:49:10;3.13;;;2.80;;
14900;SDS011;7542;49.078;9.194;2023-05-29T04:50:14;2.77;;;2.57;;
14900;SDS011;7542;49.078;9.194;2023-05-29T04:51:19;3.43;;;2.80;;
14900;SDS011;7542;49.078;9.194;2023-05-29T04:52:22;3.00;;;2.80;;
14900;SDS011;7542;49.078;9.194;2023-05-29T04:53:24;3.10;;;2.90;;
14900;SDS011;7542;49.078;9.194;2023-05-29T04:54:27;3.00;;;2.80;;
14900;SDS011;7542;49.078;9.194;2023-05-29T04:55:29;3.87;;;2.70;;
14900;SDS011;7542;49.078;9.194;2023-05-29T04:56:32;3.20;;;2.90;;
14900;SDS011;7542;49.078;9.194;2023-05-29T04:57:34;2.70;;;2.50;;
14900;SDS011;7542;49.078;9.194;2023-05-29T04:58:37;3.40;;;2.70;;
14900;SDS011;7542;49.078;9.194;2023-05-29T04:59:39;2.97;;;2.70;;
14900;SDS011;7542;49.078;9.194;2023-05-29T05:00:41;3.23;;;2.80;;
14900;SDS011;7542;49.078;9.194;2023-05-29T05:01:44;2.80;;;2.60;;
14900;SDS011;7542;49.078;9.194;2023-05-29T05:02:49;3.20;;;2.83;;
14900;SDS011;7542;49.078;9.194;2023-05-29T05:03:52;4.57;;;2.70;;
14900;SDS011;7542;49.078;9.194;2023-05-29T05:04:57;3.00;;;2.80;;
14900;SDS011;7542;49.078;9.194;2023-05-29T05:06:00;3.13;;;2.67;;
14900;SDS011;7542;49.078;9.194;2023-05-29T05:07:07;2.63;;;2.50;;
14900;SDS011;7542;49.078;9.194;2023-05-29T05:08:10;3.07;;;2.77;;
14900;SDS011;7542;49.078;9.194;2023-05-29T05:09:13;2.90;;;2.70;;
14900;SDS011;7542;49.078;9.194;2023-05-29T05:10:16;3.13;;;2.83;;
14900;SDS011;7542;49.078;9.194;2023-05-29T05:11:18;3.53;;;3.00;;
14900;SDS011;7542;49.078;9.194;2023-05-29T05:12:21;3.43;;;2.80;;
14900;SDS011;7542;49.078;9.194;2023-05-29T05:13:23;4.07;;;2.67;;
14900;SDS011;7542;49.078;9.194;2023-05-29T05:14:26;3.57;;;2.77;;
14900;SDS011;7542;49.078;9.194;2023-05-29T05:15:31;3.37;;;2.70;;
14900;SDS011;7542;49.078;9.194;2023-05-29T05:16:33;3.00;;;2.70;;
14900;SDS011;7542;49.078;9.194;2023-05-29T05:17:35;2.83;;;2.63;;
14900;SDS011;7542;49.078;9.194;2023-05-29T05:18:38;2.80;;;2.60;;
14900;SDS011;7542;49.078;9.194;2023-05-29T05:19:40;3.00;;;2.80;;
14900;SDS011;7542;49.078;9.194;2023-05-29T05:20:43;3.77;;;2.73;;
14900;SDS011;7542;49.078;9.194;2023-05-29T05:21:45;2.83;;;2.63;;
14900;SDS011;7542;49.078;9.194;2023-05-29T05:22:48;3.63;;;2.80;;
14900;SDS011;7542;49.078;9.194;2023-05-29T05:23:50;3.00;;;2.80;;
14900;SDS011;7542;49.078;9.194;2023-05-29T05:24:59;4.00;;;2.60;;
14900;SDS011;7542;49.078;9.194;2023-05-29T05:26:01;2.70;;;2.50;;
14900;SDS011;7542;49.078;9.194;2023-05-29T05:27:04;2.70;;;2.47;;
14900;SDS011;7542;49.078;9.194;2023-05-29T05:28:08;2.97;;;2.60;;
14900;SDS011;7542;49.078;9.194;2023-05-29T05:29:11;2.90;;;2.70;;
14900;SDS011;7542;49.078;9.194;2023-05-29T05:30:14;2.67;;;2.30;;
14900;SDS011;7542;49.078;9.194;2023-05-29T05:31:17;2.67;;;2.47;;
14900;SDS011;7542;49.078;9.194;2023-05-29T05:32:19;2.87;;;2.60;;
14900;SDS011;7542;49.078;9.194;2023-05-29T05:33:22;3.20;;;2.90;;
14900;SDS011;7542;49.078;9.194;2023-05-29T05:34:24;3.00;;;2.70;;
14900;SDS011;7542;49.078;9.194;2023-05-29T05:35:27;3.00;;;2.70;;
14900;SDS011;7542;49.078;9.194;2023-05-29T05:36:29;2.90;;;2.70;;
14900;SDS011;7542;49.078;9.194;2023-05-29T05:37:32;2.93;;;2.73;;
14900;SDS011;7542;49.078;9.194;2023-05-29T05:38:34;3.00;;;2.80;;
14900;SDS011;7542;49.078;9.194;2023-05-29T05:39:37;2.20;;;2.10;;
14900;SDS011;7542;49.078;9.194;2023-05-29T05:40:39;2.50;;;2.40;;
14900;SDS011;7542;49.078;9.194;2023-05-29T05:41:41;2.60;;;2.40;;
14900;SDS011;7542;49.078;9.194;2023-05-29T05:42:44;2.53;;;2.33;;
14900;SDS011;7542;49.078;9.194;2023-05-29T05:43:46;2.90;;;2.40;;
14900;SDS011;7542;49.078;9.194;2023-05-29T05:44:48;2.40;;;2.30;;
14900;SDS011;7542;49.078;9.194;2023-05-29T05:45:51;2.97;;;2.77;;
14900;SDS011;7542;49.078;9.194;2023-05-29T05:46:53;2.57;;;2.40;;
14900;SDS011;7542;49.078;9.194;2023-05-29T05:47:56;2.47;;;2.13;;
14900;SDS011;7542;49.078;9.194;2023-05-29T05:48:58;2.80;;;2.60;;
14900;SDS011;7542;49.078;9.194;2023-05-29T05:50:02;2.57;;;2.37;;
14900;SDS011;7542;49.078;9.194;2023-05-29T05:51:04;4.00;;;2.90;;
14900;SDS011;7542;49.078;9.194;2023-05-29T05:52:06;2.70;;;2.50;;
14900;SDS011;7542;49.078;9.194;2023-05-29T05:53:09;2.87;;;2.20;;
14900;SDS011;7542;49.078;9.194;2023-05-29T05:54:11;2.60;;;2.40;;
14900;SDS011;7542;49.078;9.194;2023-05-29T05:55:13;3.57;;;2.40;;
14900;SDS011;7542;49.078;9.194;2023-05-29T05:56:16;2.80;;;2.60;;
14900;SDS011;7542;49.078;9.194;2023-05-29T05:57:18;2.83;;;2.60;;
14900;SDS011;7542;49.078;9.194;2023-05-29T05:58:21;3.87;;;2.20;;
14900;SDS011;7542;49.078;9.194;2023-05-29T05:59:23;2.77;;;2.57;;
14900;SDS011;7542;49.078;9.194;2023-05-29T06:00:25;2.60;;;2.47;;
14900;SDS011;7542;49.078;9.194;2023-05-29T06:01:29;3.03;;;2.43;;
14900;SDS011;7542;49.078;9.194;2023-05-29T06:02:32;2.60;;;2.40;;
14900;SDS011;7542;49.078;9.194;2023-05-29T06:03:35;2.33;;;2.23;;
14900;SDS011;7542;49.078;9.194;2023-05-29T06:04:39;2.80;;;2.50;;
14900;SDS011;7542;49.078;9.194;2023-05-29T06:05:42;3.30;;;2.30;;
14900;SDS011;7542;49.078;9.194;2023-05-29T06:06:45;2.63;;;2.00;;
14900;SDS011;7542;49.078;9.194;2023-05-29T06:07:47;3.60;;;2.40;;
14900;SDS011;7542;49.078;9.194;2023-05-29T06:08:49;2.97;;;2.30;;
14900;SDS011;7542;49.078;9.194;2023-05-29T06:09:52;2.63;;;2.20;;
14900;SDS011;7542;49.078;9.194;2023-05-29T06:10:54;2.10;;;1.90;;
14900;SDS011;7542;49.078;9.194;2023-05-29T06:11:57;2.17;;;2.07;;
14900;SDS011;7542;49.078;9.194;2023-05-29T06:13:00;6.20;;;2.30;;
14900;SDS011;7542;49.078;9.194;2023-05-29T06:14:03;3.10;;;2.70;;
14900;SDS011;7542;49.078;9.194;2023-05-29T06:15:05;2.07;;;1.97;;
14900;SDS011;7542;49.078;9.194;2023-05-29T06:16:08;3.60;;;2.40;;
14900;SDS011;7542;49.078;9.194;2023-05-29T06:17:10;3.17;;;2.20;;
14900;SDS011;7542;49.078;9.194;2023-05-29T06:18:13;2.40;;;1.97;;
14900;SDS011;7542;49.078;9.194;2023-05-29T06:19:15;2.73;;;2.10;;
14900;SDS011;7542;49.078;9.194;2023-05-29T06:20:18;2.23;;;2.13;;
14900;SDS011;7542;49.078;9.194;2023-05-29T06:21:21;2.57;;;2.30;;
14900;SDS011;7542;49.078;9.194;2023-05-29T06:22:23;3.07;;;2.13;;
14900;SDS011;7542;49.078;9.194;2023-05-29T06:23:26;2.27;;;2.10;;
14900;SDS011;7542;49.078;9.194;2023-05-29T06:24:28;2.07;;;1.93;;
14900;SDS011;7542;49.078;9.194;2023-05-29T06:25:31;2.30;;;2.17;;
14900;SDS011;7542;49.078;9.194;2023-05-29T06:26:35;2.10;;;2.00;;
14900;SDS011;7542;49.078;9.194;2023-05-29T06:27:38;3.70;;;2.60;;
14900;SDS011;7542;49.078;9.194;2023-05-29T06:28:41;2.57;;;2.37;;
14900;SDS011;7542;49.078;9.194;2023-05-29T06:29:43;4.67;;;2.73;;
14900;SDS011;7542;49.078;9.194;2023-05-29T06:30:46;2.60;;;2.30;;
14900;SDS011;7542;49.078;9.194;2023-05-29T06:31:48;2.83;;;2.63;;
14900;SDS011;7542;49.078;9.194;2023-05-29T06:32:51;4.83;;;2.07;;
14900;SDS011;7542;49.078;9.194;2023-05-29T06:33:53;3.07;;;2.63;;